Terminal Aerodrome Forecast
Issued by NWS

Home | Current Version | Previous Version | Graphics & Text | Print | Product List | Glossary On
Versions: 1 2 3 4 5 6 7 8 9 10 11 12 13 14 15 16 17 18 19
000
FTUS43 KABR 081124
TAFMBG
TAF
KMBG 081124Z 0812/0912 34012KT P6SM SCT015 SCT150
      TEMPO 0812/0814 BKN015
     FM081900 32018G26KT P6SM BKN250
     FM090200 32014KT P6SM SCT250
     FM090600 32008KT P6SM SCT120=

USA.gov is the U.S. government's official web portal to all federal, state and local government web resources and services.